Time;durP1;ratioP1;P1;durP2;ratioP2;P2;SDS_P1;SDS_P2;PMS_P1;PMS_P2;Temp;Humidity;BMP_temperature;BMP_pressure;BME280_temperature;BME280_humidity;BME280_pressure;Samples;Min_cycle;Max_cycle;Signal;HPM_P1;HPM_P2
2023/06/22 00:01:18;;;;;;;;;;;18.20;99.90;;;;;;5075176;28;19920;-57
2023/06/22 00:03:43;;;;;;;;;;;18.20;99.90;;;;;;5075176;28;20430;-57
2023/06/22 00:06:09;;;;;;;;;;;18.20;99.90;;;;;;5075055;28;19925;-57
2023/06/22 00:08:35;;;;;;;;;;;18.10;99.90;;;;;;5057378;28;19928;-57
2023/06/22 00:11:00;;;;;;;;;;;18.10;99.90;;;;;;5075181;28;19979;-57
2023/06/22 00:13:26;;;;;;;;;;;18.00;99.90;;;;;;5075004;28;20279;-57
2023/06/22 00:15:51;;;;;;;;;;;18.00;99.90;;;;;;5074929;28;19927;-57
2023/06/22 00:18:17;;;;;;;;;;;18.00;99.90;;;;;;5075291;28;19963;-57
2023/06/22 00:20:45;;;;;;;;;;;18.00;99.90;;;;;;5073638;28;20360;-57
2023/06/22 00:23:11;;;;;;;;;;;18.00;99.90;;;;;;5074709;28;19920;-57
2023/06/22 00:25:40;;;;;;;;;;;18.00;99.90;;;;;;5073428;28;19928;-57
2023/06/22 00:28:05;;;;;;;;;;;17.90;99.90;;;;;;5074500;28;19920;-57
2023/06/22 00:30:31;;;;;;;;;;;17.80;99.90;;;;;;5074331;28;20367;-57
2023/06/22 00:32:58;;;;;;;;;;;17.80;99.90;;;;;;5074658;28;19920;-58
2023/06/22 00:35:28;;;;;;;;;;;17.60;99.90;;;;;;5074615;28;19920;-57
2023/06/22 00:38:00;;;;;;;;;;;17.50;99.90;;;;;;5074559;28;19978;-57
2023/06/22 00:40:28;;;;;;;;;;;17.40;99.90;;;;;;5074663;28;19925;-57
2023/06/22 00:42:55;;;;;;;;;;;17.40;99.90;;;;;;5074487;28;19935;-57
2023/06/22 00:45:22;;;;;;;;;;;17.30;99.90;;;;;;5056293;28;19920;-57
2023/06/22 00:47:49;;;;;;;;;;;17.30;99.90;;;;;;5073280;28;19926;-57
2023/06/22 00:55:47;;;;;;;;;;;17.20;99.90;;;;;;5523838;22;19939;-58
2023/06/22 00:58:13;;;;;;;;;;;17.20;99.90;;;;;;5054271;28;19927;-58
2023/06/22 01:00:41;;;;;;;;;;;17.20;99.90;;;;;;5053945;28;20007;-58
2023/06/22 01:03:10;;;;;;;;;;;17.30;99.90;;;;;;5054233;28;20007;-58
2023/06/22 01:05:36;;;;;;;;;;;17.30;99.90;;;;;;5054658;28;19921;-57
2023/06/22 01:08:05;;;;;;;;;;;17.20;99.90;;;;;;5036589;28;19920;-58
2023/06/22 01:10:31;;;;;;;;;;;17.10;99.90;;;;;;5054216;28;19920;-57
2023/06/22 01:13:01;;;;;;;;;;;17.00;99.90;;;;;;5054105;28;20328;-58
2023/06/22 01:15:27;;;;;;;;;;;17.00;99.90;;;;;;5053919;28;19928;-58
2023/06/22 01:17:53;;;;;;;;;;;17.00;99.90;;;;;;5054075;28;20294;-58
2023/06/22 01:20:20;;;;;;;;;;;16.90;99.90;;;;;;5020028;28;19920;-58
2023/06/22 01:23:01;;;;;;;;;;;16.80;99.90;;;;;;5054186;28;19928;-58
2023/06/22 01:25:31;;;;;;;;;;;16.80;99.90;;;;;;5036398;28;19921;-58
2023/06/22 01:28:15;;;;;;;;;;;16.80;99.90;;;;;;5053975;28;20019;-58
2023/06/22 01:30:41;;;;;;;;;;;16.80;99.90;;;;;;5054000;28;19920;-58
2023/06/22 01:33:10;;;;;;;;;;;16.70;99.90;;;;;;5036145;28;19928;-58
2023/06/22 01:35:36;;;;;;;;;;;16.80;99.90;;;;;;5036248;28;20280;-58
2023/06/22 01:38:02;;;;;;;;;;;16.80;99.90;;;;;;5003529;28;19927;-58
2023/06/22 01:40:28;;;;;;;;;;;16.80;99.90;;;;;;5053659;28;19928;-58
2023/06/22 01:42:53;;;;;;;;;;;16.80;99.90;;;;;;5053875;28;20413;-58
2023/06/22 01:45:19;;;;;;;;;;;16.80;99.90;;;;;;5053766;28;19931;-58
2023/06/22 01:47:45;;;;;;;;;;;16.90;99.90;;;;;;5053914;28;19967;-58
2023/06/22 01:50:11;;;;;;;;;;;16.90;99.90;;;;;;5053571;28;20256;-58
2023/06/22 01:52:37;;;;;;;;;;;16.90;99.90;;;;;;5053481;28;20329;-58
2023/06/22 01:55:04;;;;;;;;;;;16.80;99.90;;;;;;5035703;28;19921;-58
2023/06/22 01:57:30;;;;;;;;;;;16.90;99.90;;;;;;5053786;28;19925;-58
2023/06/22 02:00:01;;;;;;;;;;;16.80;99.90;;;;;;5053650;28;20321;-58
2023/06/22 02:02:31;;;;;;;;;;;16.80;99.90;;;;;;5053588;28;20393;-58
2023/06/22 02:05:04;;;;;;;;;;;16.90;99.90;;;;;;5053562;28;20401;-58
2023/06/22 02:07:32;;;;;;;;;;;16.80;99.90;;;;;;5054144;28;20390;-58
2023/06/22 02:09:58;;;;;;;;;;;16.70;99.90;;;;;;5057714;28;19920;-58
2023/06/22 02:12:25;;;;;;;;;;;16.70;99.90;;;;;;5057432;28;19924;-58
2023/06/22 02:14:51;;;;;;;;;;;16.60;99.90;;;;;;5057193;28;19921;-58
2023/06/22 02:17:17;;;;;;;;;;;16.60;99.90;;;;;;5057172;28;19920;-58
2023/06/22 02:19:43;;;;;;;;;;;16.50;99.90;;;;;;5057022;28;19974;-58
2023/06/22 02:22:08;;;;;;;;;;;16.60;99.90;;;;;;5057390;28;20336;-58
2023/06/22 02:24:34;;;;;;;;;;;16.50;99.90;;;;;;5057069;28;20015;-58
2023/06/22 02:27:00;;;;;;;;;;;16.50;99.90;;;;;;5056965;28;19925;-58
2023/06/22 02:29:27;;;;;;;;;;;16.50;99.90;;;;;;5039255;28;19927;-58
2023/06/22 02:31:53;;;;;;;;;;;16.50;99.90;;;;;;5057106;28;20319;-58
2023/06/22 02:34:18;;;;;;;;;;;16.50;99.90;;;;;;5056816;28;19975;-58
2023/06/22 02:36:50;;;;;;;;;;;16.40;99.90;;;;;;5056677;28;20486;-58
2023/06/22 02:39:25;;;;;;;;;;;16.40;99.90;;;;;;5056921;28;20379;-58
2023/06/22 02:41:51;;;;;;;;;;;16.40;99.90;;;;;;5056696;28;20007;-58
2023/06/22 02:44:17;;;;;;;;;;;16.40;99.90;;;;;;5056615;28;19960;-58
2023/06/22 02:46:43;;;;;;;;;;;16.40;99.90;;;;;;5056524;28;19989;-58
2023/06/22 02:49:09;;;;;;;;;;;16.40;99.90;;;;;;5038970;28;19921;-58
2023/06/22 02:51:35;;;;;;;;;;;16.40;99.90;;;;;;5056649;28;20011;-58
2023/06/22 02:54:01;;;;;;;;;;;16.30;99.90;;;;;;5056350;28;19970;-58
2023/06/22 02:56:28;;;;;;;;;;;16.30;99.90;;;;;;5056589;28;19921;-57
2023/06/22 02:58:53;;;;;;;;;;;16.30;99.90;;;;;;5056356;28;20389;-58
2023/06/22 03:01:23;;;;;;;;;;;16.20;99.90;;;;;;5038651;28;19924;-57
2023/06/22 03:03:49;;;;;;;;;;;16.20;99.90;;;;;;5056401;28;20373;-57
2023/06/22 03:06:15;;;;;;;;;;;16.20;99.90;;;;;;5056404;28;20006;-58
2023/06/22 03:08:41;;;;;;;;;;;16.20;99.90;;;;;;5056390;28;19927;-57
2023/06/22 03:11:07;;;;;;;;;;;16.20;99.90;;;;;;5056447;28;20291;-58
2023/06/22 03:13:33;;;;;;;;;;;16.10;99.90;;;;;;5056316;28;20343;-57
2023/06/22 03:15:58;;;;;;;;;;;16.20;99.90;;;;;;5038465;28;19960;-57
2023/06/22 03:18:24;;;;;;;;;;;16.20;99.90;;;;;;5055351;28;19928;-57
2023/06/22 03:20:50;;;;;;;;;;;16.20;99.90;;;;;;5056104;28;20359;-57
2023/06/22 03:23:15;;;;;;;;;;;16.20;99.90;;;;;;5055975;28;19960;-57
2023/06/22 03:25:41;;;;;;;;;;;16.10;99.90;;;;;;5038226;28;19921;-58
2023/06/22 03:28:07;;;;;;;;;;;16.10;99.90;;;;;;5038436;28;19972;-57
2023/06/22 03:30:32;;;;;;;;;;;16.10;99.90;;;;;;5055614;28;19971;-57
2023/06/22 03:32:58;;;;;;;;;;;16.00;99.90;;;;;;5055595;28;19928;-57
2023/06/22 03:35:23;;;;;;;;;;;16.00;99.90;;;;;;5055966;28;19932;-57
2023/06/22 03:37:49;;;;;;;;;;;15.90;99.90;;;;;;5037913;28;19925;-57
2023/06/22 03:40:15;;;;;;;;;;;15.80;99.90;;;;;;5055755;28;20362;-57
2023/06/22 03:42:40;;;;;;;;;;;15.80;99.90;;;;;;5055578;28;20363;-57
2023/06/22 03:45:06;;;;;;;;;;;15.80;99.90;;;;;;5037777;28;19971;-57
2023/06/22 03:47:32;;;;;;;;;;;15.80;99.90;;;;;;5055376;28;19921;-57
2023/06/22 03:49:57;;;;;;;;;;;15.80;99.90;;;;;;5055462;28;19921;-57
2023/06/22 03:52:23;;;;;;;;;;;15.80;99.90;;;;;;5055445;28;19927;-58
2023/06/22 03:54:48;;;;;;;;;;;15.80;99.90;;;;;;5055348;28;19971;-57
2023/06/22 03:57:14;;;;;;;;;;;15.80;99.90;;;;;;5055429;28;19966;-58
2023/06/22 03:59:40;;;;;;;;;;;15.80;99.90;;;;;;5055180;28;19943;-57
2023/06/22 04:02:05;;;;;;;;;;;15.90;99.90;;;;;;5055074;28;19956;-57
2023/06/22 04:04:31;;;;;;;;;;;15.80;99.90;;;;;;5037453;28;20405;-57
2023/06/22 04:06:56;;;;;;;;;;;15.80;99.90;;;;;;5055094;28;19963;-57
2023/06/22 04:09:22;;;;;;;;;;;15.80;99.90;;;;;;5054939;28;19921;-58
2023/06/22 04:11:47;;;;;;;;;;;15.80;99.90;;;;;;5037588;28;19971;-57
2023/06/22 04:14:13;;;;;;;;;;;15.80;99.90;;;;;;5054885;28;19921;-57
2023/06/22 04:16:38;;;;;;;;;;;15.80;99.90;;;;;;5054667;28;19921;-57
2023/06/22 04:19:04;;;;;;;;;;;15.80;99.90;;;;;;5054940;28;19975;-57
2023/06/22 04:21:29;;;;;;;;;;;15.80;99.90;;;;;;5054903;28;19932;-57
2023/06/22 04:23:55;;;;;;;;;;;15.90;99.90;;;;;;5037446;28;19994;-57
2023/06/22 04:26:21;;;;;;;;;;;15.90;99.90;;;;;;5054825;28;19921;-57
2023/06/22 04:28:51;;;;;;;;;;;16.00;99.90;;;;;;5037077;28;20372;-57
2023/06/22 04:31:18;;;;;;;;;;;16.10;99.90;;;;;;5036405;28;19979;-57
2023/06/22 04:33:43;;;;;;;;;;;16.20;99.90;;;;;;5055110;28;19964;-57
2023/06/22 04:36:09;;;;;;;;;;;16.20;99.90;;;;;;5054642;28;20359;-57
2023/06/22 04:38:34;;;;;;;;;;;16.20;99.90;;;;;;5054495;28;19927;-57
2023/06/22 04:41:02;;;;;;;;;;;16.30;99.90;;;;;;5037007;28;19975;-57
2023/06/22 04:43:30;;;;;;;;;;;16.30;99.90;;;;;;5054363;28;20397;-57
2023/06/22 04:46:03;;;;;;;;;;;16.40;99.90;;;;;;5054256;28;19927;-57
2023/06/22 04:48:34;;;;;;;;;;;16.40;99.90;;;;;;5054837;28;19971;-57
2023/06/22 04:51:03;;;;;;;;;;;16.50;99.90;;;;;;5054653;28;19925;-57
2023/06/22 04:53:29;;;;;;;;;;;16.60;99.90;;;;;;5054377;28;19921;-57
2023/06/22 04:55:55;;;;;;;;;;;16.70;99.90;;;;;;5054521;28;19928;-57
2023/06/22 04:58:21;;;;;;;;;;;16.80;99.90;;;;;;5054043;28;19921;-57
2023/06/22 05:00:47;;;;;;;;;;;16.80;99.90;;;;;;5054294;28;20267;-56
2023/06/22 05:03:12;;;;;;;;;;;16.90;99.90;;;;;;5054207;28;20059;-56
2023/06/22 05:05:38;;;;;;;;;;;16.90;99.90;;;;;;5054241;28;19927;-56
2023/06/22 05:08:06;;;;;;;;;;;17.00;99.90;;;;;;5054315;28;19921;-56
2023/06/22 05:10:32;;;;;;;;;;;17.10;99.90;;;;;;5054082;28;19921;-56
2023/06/22 05:12:58;;;;;;;;;;;17.10;99.90;;;;;;5053927;28;19951;-56
2023/06/22 05:15:27;;;;;;;;;;;17.20;99.90;;;;;;5054076;28;20389;-56
2023/06/22 05:17:53;;;;;;;;;;;17.40;99.90;;;;;;5054069;28;19920;-56
2023/06/22 05:20:19;;;;;;;;;;;17.60;99.90;;;;;;5036899;28;20047;-56
2023/06/22 05:22:44;;;;;;;;;;;18.00;99.90;;;;;;5053810;28;19971;-55
2023/06/22 05:25:10;;;;;;;;;;;18.10;99.90;;;;;;5053649;28;19928;-55
2023/06/22 05:27:39;;;;;;;;;;;18.20;99.90;;;;;;5053648;28;20371;-55
2023/06/22 05:30:06;;;;;;;;;;;18.20;99.90;;;;;;5036211;28;19920;-56
2023/06/22 05:32:32;;;;;;;;;;;18.30;99.90;;;;;;5053848;28;20363;-56
2023/06/22 05:34:57;;;;;;;;;;;18.30;99.90;;;;;;5053705;28;19927;-56
2023/06/22 05:37:23;;;;;;;;;;;18.40;99.90;;;;;;5035829;28;20011;-56
2023/06/22 05:39:49;;;;;;;;;;;18.50;99.90;;;;;;5053714;28;19921;-56
2023/06/22 05:42:14;;;;;;;;;;;18.50;99.90;;;;;;5055582;28;19920;-56
2023/06/22 05:44:40;;;;;;;;;;;18.60;99.90;;;;;;5057858;28;19990;-56
2023/06/22 05:47:06;;;;;;;;;;;18.70;99.90;;;;;;5057804;28;20382;-56
2023/06/22 05:49:32;;;;;;;;;;;18.80;99.90;;;;;;5057650;28;20029;-56
2023/06/22 05:51:58;;;;;;;;;;;18.90;99.90;;;;;;5057877;28;19920;-56
2023/06/22 05:54:24;;;;;;;;;;;19.00;99.90;;;;;;5023376;28;20486;-56
2023/06/22 05:56:49;;;;;;;;;;;19.10;99.90;;;;;;5057071;28;20314;-56
2023/06/22 05:59:15;;;;;;;;;;;19.10;99.90;;;;;;5057481;28;19927;-56
2023/06/22 06:01:40;;;;;;;;;;;19.10;99.90;;;;;;5057276;28;19925;-55
2023/06/22 06:04:09;;;;;;;;;;;19.20;99.90;;;;;;5039752;28;19928;-56
2023/06/22 06:06:36;;;;;;;;;;;19.20;99.90;;;;;;5039796;28;19927;-56
2023/06/22 06:09:03;;;;;;;;;;;19.30;99.90;;;;;;5057273;28;19954;-56
2023/06/22 06:11:28;;;;;;;;;;;19.30;99.90;;;;;;5057182;28;19921;-56
2023/06/22 06:13:54;;;;;;;;;;;19.40;99.90;;;;;;5057545;28;20377;-56
2023/06/22 06:16:20;;;;;;;;;;;19.40;99.90;;;;;;5057308;28;19924;-56
2023/06/22 06:18:45;;;;;;;;;;;19.50;99.90;;;;;;5057182;28;19927;-56
2023/06/22 06:21:11;;;;;;;;;;;19.50;99.90;;;;;;5057052;28;19937;-56
2023/06/22 06:23:36;;;;;;;;;;;19.60;99.90;;;;;;5039418;28;19971;-56
2023/06/22 06:26:02;;;;;;;;;;;19.60;99.90;;;;;;5039583;28;19928;-56
2023/06/22 06:28:27;;;;;;;;;;;19.60;99.90;;;;;;5057106;28;19920;-56
2023/06/22 06:30:53;;;;;;;;;;;19.60;99.90;;;;;;5056680;28;19920;-56
2023/06/22 06:33:20;;;;;;;;;;;19.70;99.90;;;;;;5039463;28;19980;-56
2023/06/22 06:35:46;;;;;;;;;;;19.80;99.90;;;;;;5057017;28;19927;-56
2023/06/22 06:38:11;;;;;;;;;;;19.80;99.90;;;;;;5057038;28;20007;-56
2023/06/22 06:40:37;;;;;;;;;;;19.80;99.90;;;;;;5038810;28;20352;-56
2023/06/22 06:43:02;;;;;;;;;;;19.90;99.90;;;;;;5056788;28;19920;-56
2023/06/22 06:45:30;;;;;;;;;;;19.90;99.90;;;;;;5056557;28;20022;-55
2023/06/22 06:47:56;;;;;;;;;;;20.00;99.90;;;;;;5038987;28;19944;-54
2023/06/22 06:50:21;;;;;;;;;;;20.00;99.90;;;;;;5056288;28;19921;-56
2023/06/22 06:52:47;;;;;;;;;;;20.20;99.90;;;;;;5056292;28;19927;-56
2023/06/22 06:55:13;;;;;;;;;;;20.30;99.90;;;;;;5055955;28;20275;-55
2023/06/22 06:57:39;;;;;;;;;;;20.40;99.90;;;;;;5056539;28;19921;-54
2023/06/22 07:00:13;;;;;;;;;;;20.40;99.90;;;;;;5056781;28;20282;-52
2023/06/22 07:02:42;;;;;;;;;;;20.50;99.90;;;;;;5056499;28;19990;-50
2023/06/22 07:05:08;;;;;;;;;;;20.50;99.90;;;;;;5056325;28;19921;-53
2023/06/22 07:07:34;;;;;;;;;;;20.60;99.90;;;;;;5056098;28;20312;-53
2023/06/22 07:10:00;;;;;;;;;;;20.70;99.90;;;;;;5038325;28;19925;-53
2023/06/22 07:12:26;;;;;;;;;;;20.70;99.90;;;;;;5056417;28;19987;-56
2023/06/22 07:14:52;;;;;;;;;;;20.90;99.90;;;;;;5056360;28;20035;-55
2023/06/22 07:17:17;;;;;;;;;;;21.00;99.90;;;;;;5056157;28;20290;-56
2023/06/22 07:19:43;;;;;;;;;;;21.00;99.90;;;;;;5056194;28;19920;-56
2023/06/22 07:22:08;;;;;;;;;;;21.10;99.90;;;;;;5056051;28;19921;-56
2023/06/22 07:24:34;;;;;;;;;;;21.30;99.90;;;;;;5038264;28;20278;-56
2023/06/22 07:27:00;;;;;;;;;;;21.60;99.90;;;;;;5056017;28;19924;-56
2023/06/22 07:29:26;;;;;;;;;;;21.90;99.90;;;;;;5056109;28;20024;-56
2023/06/22 07:31:52;;;;;;;;;;;22.10;99.90;;;;;;5055716;28;19921;-56
2023/06/22 07:34:18;;;;;;;;;;;22.00;99.90;;;;;;5055659;28;19921;-56
2023/06/22 07:36:44;;;;;;;;;;;21.90;99.90;;;;;;5038174;28;19921;-57
2023/06/22 07:39:09;;;;;;;;;;;21.80;99.90;;;;;;5055527;28;20379;-57
2023/06/22 07:41:35;;;;;;;;;;;21.70;99.90;;;;;;5055685;28;19928;-57
2023/06/22 07:44:01;;;;;;;;;;;21.60;99.90;;;;;;5055551;28;19927;-57
2023/06/22 07:46:29;;;;;;;;;;;21.70;99.90;;;;;;5055474;28;20374;-57
2023/06/22 07:48:56;;;;;;;;;;;21.60;99.90;;;;;;5055441;28;19927;-57
2023/06/22 07:51:21;;;;;;;;;;;21.60;99.90;;;;;;5037948;28;19927;-57
2023/06/22 07:53:47;;;;;;;;;;;21.60;99.90;;;;;;5055154;28;19920;-57
2023/06/22 07:56:13;;;;;;;;;;;21.60;99.90;;;;;;5055406;28;19921;-57
2023/06/22 07:58:39;;;;;;;;;;;21.60;99.90;;;;;;5055206;28;20363;-57
2023/06/22 08:01:04;;;;;;;;;;;21.60;99.90;;;;;;5055329;28;19920;-57
2023/06/22 08:03:30;;;;;;;;;;;21.60;99.90;;;;;;5055283;28;19920;-57
2023/06/22 08:05:55;;;;;;;;;;;21.70;99.90;;;;;;5055117;28;19927;-57
2023/06/22 08:08:21;;;;;;;;;;;21.70;99.90;;;;;;5054980;28;20283;-57
2023/06/22 08:10:46;;;;;;;;;;;21.80;99.90;;;;;;5054993;28;19924;-57
2023/06/22 08:13:12;;;;;;;;;;;21.80;99.90;;;;;;5055171;28;20333;-57
2023/06/22 08:15:38;;;;;;;;;;;21.80;99.90;;;;;;5055029;28;19921;-58
2023/06/22 08:18:03;;;;;;;;;;;21.80;99.90;;;;;;5037287;28;19920;-57
2023/06/22 08:20:29;;;;;;;;;;;21.90;99.90;;;;;;5054733;28;20011;-57
2023/06/22 08:22:55;;;;;;;;;;;21.90;99.90;;;;;;5054606;28;19925;-58
2023/06/22 08:25:21;;;;;;;;;;;21.90;99.90;;;;;;5054918;28;19990;-57
2023/06/22 08:27:47;;;;;;;;;;;21.80;99.90;;;;;;5054936;28;20272;-57
2023/06/22 08:30:13;;;;;;;;;;;21.80;99.90;;;;;;5054619;28;19935;-57
2023/06/22 08:32:38;;;;;;;;;;;21.90;99.90;;;;;;5054649;28;20026;-57
2023/06/22 08:35:06;;;;;;;;;;;21.90;99.90;;;;;;5054608;28;19921;-58
2023/06/22 08:37:35;;;;;;;;;;;21.90;99.90;;;;;;5054624;28;19983;-57
2023/06/22 08:40:03;;;;;;;;;;;22.00;99.90;;;;;;5054634;28;19975;-57
2023/06/22 08:42:28;;;;;;;;;;;22.00;99.90;;;;;;5037116;28;20370;-57
2023/06/22 08:44:54;;;;;;;;;;;22.00;99.90;;;;;;5036639;28;19927;-56
2023/06/22 08:47:21;;;;;;;;;;;22.10;99.90;;;;;;5054336;28;20333;-58
2023/06/22 08:49:47;;;;;;;;;;;22.10;99.90;;;;;;5054158;28;19921;-57
2023/06/22 08:52:12;;;;;;;;;;;22.10;99.90;;;;;;5054394;28;19921;-57
2023/06/22 08:54:38;;;;;;;;;;;22.10;99.90;;;;;;5054391;28;19921;-57
2023/06/22 08:57:04;;;;;;;;;;;22.10;99.90;;;;;;5054306;28;19928;-56
2023/06/22 08:59:29;;;;;;;;;;;22.10;99.90;;;;;;5036656;28;20019;-57
2023/06/22 09:01:55;;;;;;;;;;;22.20;99.90;;;;;;5054103;28;19920;-57
2023/06/22 09:04:23;;;;;;;;;;;22.20;99.90;;;;;;5054162;28;19921;-57
2023/06/22 09:06:49;;;;;;;;;;;22.20;99.90;;;;;;5054000;28;20393;-57
2023/06/22 09:09:16;;;;;;;;;;;22.20;99.90;;;;;;5054190;28;20359;-58
2023/06/22 09:11:41;;;;;;;;;;;22.30;99.90;;;;;;5054154;28;19921;-57
2023/06/22 09:14:08;;;;;;;;;;;22.30;99.90;;;;;;5053962;28;19921;-57
2023/06/22 09:16:33;;;;;;;;;;;22.40;99.90;;;;;;5053503;28;20382;-59
2023/06/22 09:18:59;;;;;;;;;;;22.40;99.90;;;;;;5053786;28;19944;-59
2023/06/22 09:21:25;;;;;;;;;;;22.40;99.90;;;;;;5054025;28;19920;-59
2023/06/22 09:23:51;;;;;;;;;;;22.50;99.90;;;;;;5053972;28;19983;-57
2023/06/22 09:26:17;;;;;;;;;;;22.50;99.90;;;;;;5053964;28;19927;-59
2023/06/22 09:28:42;;;;;;;;;;;22.50;99.90;;;;;;5053946;28;20342;-59
2023/06/22 09:31:08;;;;;;;;;;;22.60;99.90;;;;;;5053839;28;20019;-60
2023/06/22 09:33:35;;;;;;;;;;;22.60;99.90;;;;;;5053768;28;19944;-59
2023/06/22 09:36:00;;;;;;;;;;;22.70;99.90;;;;;;5054498;28;19920;-59
2023/06/22 09:38:26;;;;;;;;;;;22.60;99.90;;;;;;5053987;28;20481;-59
2023/06/22 09:40:51;;;;;;;;;;;22.60;99.90;;;;;;5053646;28;19921;-62
2023/06/22 09:43:17;;;;;;;;;;;22.60;99.90;;;;;;5053832;28;20011;-61
2023/06/22 09:45:43;;;;;;;;;;;22.60;99.90;;;;;;5053761;28;19928;-59
2023/06/22 09:48:09;;;;;;;;;;;22.70;99.90;;;;;;5053320;28;19998;-59
2023/06/22 09:50:35;;;;;;;;;;;22.70;99.90;;;;;;5053373;28;19927;-59
2023/06/22 09:53:01;;;;;;;;;;;22.80;99.90;;;;;;5053466;28;20367;-59
2023/06/22 09:55:26;;;;;;;;;;;22.80;99.90;;;;;;5053873;28;19928;-58
2023/06/22 09:57:52;;;;;;;;;;;22.80;99.90;;;;;;5053449;28;20364;-59
2023/06/22 10:00:18;;;;;;;;;;;22.80;99.90;;;;;;5053476;28;19927;-58
2023/06/22 10:02:44;;;;;;;;;;;22.80;99.90;;;;;;5053348;28;20007;-59
2023/06/22 10:05:10;;;;;;;;;;;22.90;99.90;;;;;;5036116;28;19967;-59
2023/06/22 10:07:39;;;;;;;;;;;22.90;99.90;;;;;;5053578;28;20344;-57
2023/06/22 10:10:06;;;;;;;;;;;22.90;99.90;;;;;;5053338;28;19927;-58
2023/06/22 10:12:31;;;;;;;;;;;22.90;99.90;;;;;;5053427;28;19943;-57
2023/06/22 10:14:57;;;;;;;;;;;23.00;99.90;;;;;;5053366;28;20354;-59
2023/06/22 10:17:22;;;;;;;;;;;23.10;99.90;;;;;;5053228;28;20053;-60
2023/06/22 10:19:48;;;;;;;;;;;23.10;99.90;;;;;;5053135;28;19921;-58
2023/06/22 10:22:13;;;;;;;;;;;23.10;99.90;;;;;;5053412;28;19920;-59
2023/06/22 10:24:44;;;;;;;;;;;23.20;99.90;;;;;;5035621;28;19931;-59
2023/06/22 10:27:13;;;;;;;;;;;23.30;99.90;;;;;;5053400;28;19925;-59
2023/06/22 10:29:39;;;;;;;;;;;23.40;99.90;;;;;;5055690;28;19987;-57
2023/06/22 10:32:05;;;;;;;;;;;23.40;99.90;;;;;;5056866;28;19982;-59
2023/06/22 10:34:30;;;;;;;;;;;23.40;99.90;;;;;;5056739;28;19920;-59
2023/06/22 10:36:56;;;;;;;;;;;23.50;99.90;;;;;;5039360;28;19967;-61
2023/06/22 10:39:21;;;;;;;;;;;23.60;99.90;;;;;;5056759;28;20007;-59
2023/06/22 10:41:47;;;;;;;;;;;23.60;99.90;;;;;;5057024;28;19924;-59
2023/06/22 10:44:13;;;;;;;;;;;23.70;99.90;;;;;;5056809;28;20278;-59
2023/06/22 10:46:38;;;;;;;;;;;23.80;99.90;;;;;;5039202;28;19921;-59
2023/06/22 10:49:04;;;;;;;;;;;23.90;99.90;;;;;;5056676;28;19921;-59
2023/06/22 10:51:31;;;;;;;;;;;24.00;99.90;;;;;;5056697;28;19925;-58
2023/06/22 10:53:56;;;;;;;;;;;24.10;99.90;;;;;;5056614;28;19920;-58
2023/06/22 10:56:22;;;;;;;;;;;24.20;99.90;;;;;;5056569;28;20282;-58
2023/06/22 10:58:48;;;;;;;;;;;24.20;99.90;;;;;;5056492;28;19921;-58
2023/06/22 11:01:14;;;;;;;;;;;24.30;99.90;;;;;;5056242;28;19920;-59
2023/06/22 11:03:39;;;;;;;;;;;24.40;99.90;;;;;;5056612;28;19999;-62
2023/06/22 11:06:05;;;;;;;;;;;24.40;99.90;;;;;;5056806;28;19921;-59
2023/06/22 11:08:30;;;;;;;;;;;24.50;99.90;;;;;;5056339;28;20287;-57
2023/06/22 11:10:56;;;;;;;;;;;24.60;99.90;;;;;;5056265;28;19921;-58
2023/06/22 11:13:21;;;;;;;;;;;24.60;99.90;;;;;;5056093;28;19920;-59
2023/06/22 11:15:47;;;;;;;;;;;24.70;99.90;;;;;;5056016;28;19921;-59
2023/06/22 11:18:13;;;;;;;;;;;24.80;99.90;;;;;;5056138;28;19920;-58
2023/06/22 11:20:38;;;;;;;;;;;24.90;99.90;;;;;;5056053;28;19927;-58
2023/06/22 11:23:06;;;;;;;;;;;25.00;99.90;;;;;;5056290;28;19920;-59
2023/06/22 11:25:31;;;;;;;;;;;25.10;99.90;;;;;;5055901;28;19920;-58
2023/06/22 11:27:57;;;;;;;;;;;25.20;99.90;;;;;;5055796;28;20436;-59
2023/06/22 11:30:23;;;;;;;;;;;25.40;99.90;;;;;;5037636;28;20333;-60
2023/06/22 11:32:48;;;;;;;;;;;25.50;99.90;;;;;;5055817;28;19967;-57
2023/06/22 11:35:14;;;;;;;;;;;25.40;99.90;;;;;;5055710;28;19920;-58
2023/06/22 11:37:39;;;;;;;;;;;25.30;99.90;;;;;;5055974;28;20397;-56
2023/06/22 11:40:08;;;;;;;;;;;25.10;99.90;;;;;;5055404;28;19920;-55
2023/06/22 11:42:34;;;;;;;;;;;24.90;99.90;;;;;;5055834;28;19921;-59
2023/06/22 11:44:59;;;;;;;;;;;24.70;99.90;;;;;;5055460;28;19931;-54
2023/06/22 11:47:25;;;;;;;;;;;24.60;99.90;;;;;;5055962;28;20398;-52
2023/06/22 11:49:50;;;;;;;;;;;24.50;99.90;;;;;;5055255;28;19928;-54
2023/06/22 11:52:17;;;;;;;;;;;24.50;99.90;;;;;;5055306;28;19963;-56
2023/06/22 11:54:43;;;;;;;;;;;24.50;99.90;;;;;;5037596;28;19997;-50
2023/06/22 11:57:08;;;;;;;;;;;24.50;99.90;;;;;;5055246;28;19920;-54
2023/06/22 11:59:34;;;;;;;;;;;24.40;99.90;;;;;;5055023;28;19990;-57
2023/06/22 12:02:00;;;;;;;;;;;24.40;99.90;;;;;;5037251;28;19947;-58
2023/06/22 12:04:25;;;;;;;;;;;24.40;99.90;;;;;;5055260;28;19921;-57
2023/06/22 12:06:51;;;;;;;;;;;24.40;99.90;;;;;;5055153;28;20027;-52
2023/06/22 12:09:16;;;;;;;;;;;24.40;99.90;;;;;;5055085;28;19967;-58
2023/06/22 12:11:42;;;;;;;;;;;24.30;99.90;;;;;;5055363;28;19974;-57
2023/06/22 12:14:07;;;;;;;;;;;24.30;99.90;;;;;;5054869;28;20322;-54
2023/06/22 12:16:33;;;;;;;;;;;24.30;99.90;;;;;;5054877;28;19921;-58
2023/06/22 12:18:59;;;;;;;;;;;24.30;99.90;;;;;;5055316;28;19920;-54
2023/06/22 12:21:24;;;;;;;;;;;24.30;99.90;;;;;;5054959;28;19987;-58
2023/06/22 12:23:50;;;;;;;;;;;24.20;99.90;;;;;;5054950;28;19924;-58
2023/06/22 12:26:15;;;;;;;;;;;24.20;99.90;;;;;;5054904;28;19986;-56
2023/06/22 12:28:41;;;;;;;;;;;24.20;99.90;;;;;;5054628;28;19920;-59
2023/06/22 12:31:07;;;;;;;;;;;24.20;99.90;;;;;;5054397;28;20019;-57
2023/06/22 12:33:32;;;;;;;;;;;24.10;99.90;;;;;;5055325;28;20367;-55
2023/06/22 12:35:58;;;;;;;;;;;24.00;99.90;;;;;;5036840;28;19921;-56
2023/06/22 12:38:25;;;;;;;;;;;24.00;99.90;;;;;;5054655;28;19924;-56
2023/06/22 12:40:51;;;;;;;;;;;23.90;99.90;;;;;;5054579;28;19921;-57
2023/06/22 12:43:16;;;;;;;;;;;23.80;99.90;;;;;;5036957;28;19943;-57
2023/06/22 12:45:42;;;;;;;;;;;23.80;99.90;;;;;;5054375;28;19928;-56
2023/06/22 12:48:08;;;;;;;;;;;23.70;99.90;;;;;;5054535;28;20367;-58
2023/06/22 12:50:34;;;;;;;;;;;23.70;99.90;;;;;;5036672;28;20355;-57
2023/06/22 12:52:59;;;;;;;;;;;23.70;99.90;;;;;;5053953;28;19925;-57
2023/06/22 12:55:25;;;;;;;;;;;23.60;99.90;;;;;;5053971;28;19921;-57
2023/06/22 12:57:51;;;;;;;;;;;23.60;99.90;;;;;;5036636;28;19966;-57
2023/06/22 13:00:16;;;;;;;;;;;23.50;99.90;;;;;;5054258;28;19920;-57
2023/06/22 13:02:42;;;;;;;;;;;23.50;99.90;;;;;;5036742;28;19921;-57
2023/06/22 13:05:08;;;;;;;;;;;23.50;99.90;;;;;;5054310;28;20035;-57
2023/06/22 13:07:34;;;;;;;;;;;23.40;99.90;;;;;;5054145;28;19966;-54
2023/06/22 13:09:59;;;;;;;;;;;23.40;99.90;;;;;;5054021;28;19924;-58
2023/06/22 13:12:26;;;;;;;;;;;23.40;99.90;;;;;;5054145;28;20336;-67
2023/06/22 13:14:52;;;;;;;;;;;23.40;99.90;;;;;;5054012;28;20025;-58
2023/06/22 13:17:17;;;;;;;;;;;23.40;99.90;;;;;;5054244;28;19921;-58
2023/06/22 13:19:43;;;;;;;;;;;23.40;99.90;;;;;;5054110;28;19921;-58
2023/06/22 13:22:26;;;;;;;;;;;23.40;99.90;;;;;;5054035;28;19966;-58
2023/06/22 13:24:51;;;;;;;;;;;23.40;99.90;;;;;;5053952;28;19928;-57
2023/06/22 13:27:17;;;;;;;;;;;23.40;99.90;;;;;;5053876;28;19921;-58
2023/06/22 13:29:42;;;;;;;;;;;23.50;99.90;;;;;;5053855;28;19968;-57
2023/06/22 13:32:08;;;;;;;;;;;23.40;99.90;;;;;;5054231;28;19920;-58
2023/06/22 13:34:34;;;;;;;;;;;23.40;99.90;;;;;;5054003;28;19921;-63
2023/06/22 13:36:59;;;;;;;;;;;23.40;99.90;;;;;;5053779;28;20410;-57
2023/06/22 13:39:25;;;;;;;;;;;23.40;99.90;;;;;;5053739;28;20279;-57
2023/06/22 13:41:50;;;;;;;;;;;23.40;99.90;;;;;;5053621;28;19921;-57
2023/06/22 13:44:16;;;;;;;;;;;23.30;99.90;;;;;;5053793;28;20058;-57
2023/06/22 13:46:41;;;;;;;;;;;23.20;99.90;;;;;;5053788;28;19928;-58
2023/06/22 13:49:07;;;;;;;;;;;23.20;99.90;;;;;;5053743;28;20025;-57
2023/06/22 13:51:32;;;;;;;;;;;23.20;99.90;;;;;;5035989;28;19921;-57
2023/06/22 13:53:58;;;;;;;;;;;23.20;99.90;;;;;;5053648;28;19921;-58
2023/06/22 13:56:24;;;;;;;;;;;23.20;99.90;;;;;;5053777;28;20046;-57
2023/06/22 13:58:49;;;;;;;;;;;23.10;99.90;;;;;;5053639;28;19920;-57
2023/06/22 14:01:15;;;;;;;;;;;23.10;99.90;;;;;;5053492;28;19921;-57
2023/06/22 14:03:40;;;;;;;;;;;23.10;99.90;;;;;;5038719;28;19927;-59
2023/06/22 14:06:06;;;;;;;;;;;23.10;99.90;;;;;;5057365;28;20341;-57
2023/06/22 14:08:32;;;;;;;;;;;23.00;99.90;;;;;;5057397;28;19944;-59
2023/06/22 14:10:57;;;;;;;;;;;23.00;99.90;;;;;;5039323;28;20019;-59
2023/06/22 14:13:23;;;;;;;;;;;22.90;99.90;;;;;;5057360;28;19974;-59
2023/06/22 14:15:48;;;;;;;;;;;22.90;99.90;;;;;;5057284;28;19935;-56